Time;durP1;ratioP1;P1;durP2;ratioP2;P2;SDS_P1;SDS_P2;PMS_P1;PMS_P2;Temp;Humidity;BMP_temperature;BMP_pressure;BME280_temperature;BME280_humidity;BME280_pressure;Samples;Min_cycle;Max_cycle;Signal;HPM_P1;HPM_P2
2022/10/04 00:01:53;;;;;;;;;;;;;;;10.08;68.32;100891.68;1731660;83;27706;-59
2022/10/04 00:04:44;;;;;;;;;;;;;;;10.08;68.32;100894.87;1738393;82;25701;-59
2022/10/04 00:07:14;;;;;;;;;;;;;;;10.06;68.46;100894.14;1739237;82;25632;-59
2022/10/04 00:09:56;;;;;;;;;;;;;;;10.05;68.73;100892.44;1736294;82;26153;-59
2022/10/04 00:12:42;;;;;;;;;;;;;;;10.06;68.40;100899.52;1735753;82;25648;-59
2022/10/04 00:15:31;;;;;;;;;;;;;;;10.01;68.72;100904.78;1737545;82;27585;-59
2022/10/04 00:18:13;;;;;;;;;;;;;;;10.00;68.81;100898.20;1737727;82;25898;-60
2022/10/04 00:20:54;;;;;;;;;;;;;;;10.00;68.82;100901.72;1738393;82;25492;-59
2022/10/04 00:23:27;;;;;;;;;;;;;;;9.96;69.42;100900.30;1735643;81;26317;-59
2022/10/04 00:26:14;;;;;;;;;;;;;;;9.93;69.67;100902.39;1732058;83;25771;-58
2022/10/04 00:28:45;;;;;;;;;;;;;;;9.91;69.80;100897.13;1731792;82;27465;-58
2022/10/04 00:31:23;;;;;;;;;;;;;;;9.91;69.65;100902.50;1745238;82;25716;-58
2022/10/04 00:34:10;;;;;;;;;;;;;;;9.92;69.61;100904.70;1737157;82;25782;-59
2022/10/04 00:36:46;;;;;;;;;;;;;;;9.91;69.50;100894.44;1730292;82;26129;-59
2022/10/04 00:39:15;;;;;;;;;;;;;;;9.94;69.65;100891.50;1740326;82;25701;-59
2022/10/04 00:41:51;;;;;;;;;;;;;;;9.94;69.77;100900.06;1747000;81;27482;-59
2022/10/04 00:44:45;;;;;;;;;;;;;;;9.94;70.04;100900.91;1732657;82;25800;-59
2022/10/04 00:47:15;;;;;;;;;;;;;;;9.92;69.87;100889.42;1726873;82;25763;-58
2022/10/04 00:49:44;;;;;;;;;;;;;;;9.88;70.09;100897.40;1724015;82;27310;-59
2022/10/04 00:52:17;;;;;;;;;;;;;;;9.92;69.78;100895.30;1732359;82;25708;-59
2022/10/04 00:54:49;;;;;;;;;;;;;;;9.93;69.72;100899.20;1724135;83;27517;-59
2022/10/04 00:57:37;;;;;;;;;;;;;;;9.96;69.88;100895.39;1731511;83;25746;-59
2022/10/04 01:00:14;;;;;;;;;;;;;;;9.93;69.77;100895.16;1731375;82;25747;-59
2022/10/04 01:02:44;;;;;;;;;;;;;;;9.96;69.86;100900.30;1733123;82;26264;-58
2022/10/04 01:05:18;;;;;;;;;;;;;;;10.05;70.03;100899.99;1736458;82;25744;-59
2022/10/04 01:07:54;;;;;;;;;;;;;;;10.13;70.24;100899.36;1738704;82;27438;-59
2022/10/04 01:10:27;;;;;;;;;;;;;;;10.21;70.17;100898.72;1738755;82;25415;-58
2022/10/04 01:12:59;;;;;;;;;;;;;;;10.26;70.29;100891.97;1731629;82;25746;-59
2022/10/04 01:16:01;;;;;;;;;;;;;;;10.31;70.13;100895.57;1732001;82;26208;-58
2022/10/04 01:18:31;;;;;;;;;;;;;;;10.34;70.27;100900.22;1731922;82;25768;-59
2022/10/04 01:21:19;;;;;;;;;;;;;;;10.36;70.08;100905.45;1731814;82;27620;-59
2022/10/04 01:23:49;;;;;;;;;;;;;;;10.37;70.27;100907.64;1731409;83;25731;-58
2022/10/04 01:26:31;;;;;;;;;;;;;;;10.37;70.09;100909.89;1731716;82;25664;-58
2022/10/04 01:29:20;;;;;;;;;;;;;;;10.37;70.25;100917.95;1722690;82;26852;-59
2022/10/04 01:31:48;;;;;;;;;;;;;;;10.37;70.29;100907.64;1726757;82;25719;-60
2022/10/04 01:34:19;;;;;;;;;;;;;;;10.36;70.44;100912.66;1732366;82;27501;-60
2022/10/04 01:36:47;;;;;;;;;;;;;;;10.29;70.17;100913.70;1731379;81;25748;-60
2022/10/04 01:39:16;;;;;;;;;;;;;;;10.18;69.60;100918.63;1750447;81;25807;-59
2022/10/04 01:41:52;;;;;;;;;;;;;;;10.08;69.55;100917.22;1736083;81;26723;-60
2022/10/04 01:44:31;;;;;;;;;;;;;;;9.96;69.68;100923.61;1731443;82;25714;-59
2022/10/04 01:47:01;;;;;;;;;;;;;;;9.86;69.77;100917.66;1731625;83;27633;-60
2022/10/04 01:49:33;;;;;;;;;;;;;;;9.79;69.97;100918.32;1731738;82;25928;-59
2022/10/04 01:52:06;;;;;;;;;;;;;;;9.75;70.18;100920.88;1731665;81;25784;-60
2022/10/04 01:54:42;;;;;;;;;;;;;;;9.71;70.11;100931.03;1731841;82;26053;-59
2022/10/04 01:57:23;;;;;;;;;;;;;;;9.67;70.65;100925.06;1731687;83;25427;-59
2022/10/04 02:00:03;;;;;;;;;;;;;;;9.68;70.28;100932.14;1731589;82;27455;-60
2022/10/04 02:03:01;;;;;;;;;;;;;;;9.70;70.48;100930.66;1713272;83;25482;-60
2022/10/04 02:05:37;;;;;;;;;;;;;;;9.73;70.03;100930.92;1713336;83;25740;-59
2022/10/04 02:08:11;;;;;;;;;;;;;;;9.75;69.92;100932.97;1721467;82;26175;-59
2022/10/04 02:10:39;;;;;;;;;;;;;;;9.75;69.67;100937.88;1731654;82;25725;-59
2022/10/04 02:13:14;;;;;;;;;;;;;;;9.75;69.70;100941.03;1731463;82;27474;-58
2022/10/04 02:15:41;;;;;;;;;;;;;;;9.77;69.51;100945.80;1731446;82;25677;-59
2022/10/04 02:18:13;;;;;;;;;;;;;;;9.80;69.44;100956.30;1731645;81;25739;-59
2022/10/04 02:20:41;;;;;;;;;;;;;;;9.81;69.29;100955.33;1731491;82;26810;-59
2022/10/04 02:23:10;;;;;;;;;;;;;;;9.81;69.64;100958.01;1736639;82;25689;-59
2022/10/04 02:25:37;;;;;;;;;;;;;;;9.79;69.88;100954.59;1741256;82;27459;-60
2022/10/04 02:28:07;;;;;;;;;;;;;;;9.79;70.14;100958.11;1726278;82;25779;-58
2022/10/04 02:30:38;;;;;;;;;;;;;;;9.77;70.71;100955.20;1738077;81;25710;-59
2022/10/04 02:33:05;;;;;;;;;;;;;;;9.78;70.43;100964.47;1728670;80;26918;-58
2022/10/04 02:35:37;;;;;;;;;;;;;;;9.77;70.83;100959.23;1731536;82;25717;-59
2022/10/04 02:38:09;;;;;;;;;;;;;;;9.76;70.49;100962.42;1735428;80;28158;-59
2022/10/04 02:40:40;;;;;;;;;;;;;;;9.78;70.21;100961.78;1763208;81;25702;-59
2022/10/04 02:43:09;;;;;;;;;;;;;;;9.76;70.12;100966.45;1733983;81;25736;-59
2022/10/04 02:45:42;;;;;;;;;;;;;;;9.78;70.13;100967.66;1731464;82;27027;-60
2022/10/04 02:48:28;;;;;;;;;;;;;;;9.81;69.92;100967.41;1727107;82;25851;-59
2022/10/04 02:50:57;;;;;;;;;;;;;;;9.82;69.92;100960.56;1717072;82;27539;-60
2022/10/04 02:53:36;;;;;;;;;;;;;;;9.85;69.49;100968.85;1712090;83;26059;-60
2022/10/04 02:56:05;;;;;;;;;;;;;;;9.87;69.68;100971.77;1713282;83;25740;-60
2022/10/04 02:58:32;;;;;;;;;;;;;;;9.90;69.35;100977.88;1713499;83;26718;-60
2022/10/04 03:01:00;;;;;;;;;;;;;;;9.91;69.56;100977.73;1713641;82;25736;-59
2022/10/04 03:03:33;;;;;;;;;;;;;;;9.93;69.60;100980.32;1731500;83;27434;-59
2022/10/04 03:06:10;;;;;;;;;;;;;;;9.96;69.51;100972.85;1731294;83;25710;-60
2022/10/04 03:08:49;;;;;;;;;;;;;;;10.00;69.49;100982.35;1731470;83;25806;-59
2022/10/04 03:11:17;;;;;;;;;;;;;;;10.03;69.31;100975.39;1717008;83;26266;-59
2022/10/04 03:13:46;;;;;;;;;;;;;;;10.07;69.26;100979.17;1701063;83;25705;-59
2022/10/04 03:16:13;;;;;;;;;;;;;;;10.08;69.09;100977.70;1700514;83;27464;-59
2022/10/04 03:18:41;;;;;;;;;;;;;;;10.11;68.91;100984.64;1701074;84;26104;-59
2022/10/04 03:21:09;;;;;;;;;;;;;;;10.09;68.71;100990.63;1693997;84;25729;-59
2022/10/04 03:23:38;;;;;;;;;;;;;;;10.05;68.61;100988.69;1685252;85;26067;-59
2022/10/04 03:26:28;;;;;;;;;;;;;;;10.03;68.65;100989.34;1689994;84;25799;-59
2022/10/04 03:28:56;;;;;;;;;;;;;;;10.07;69.03;100993.96;1687034;83;27580;-60
2022/10/04 03:31:25;;;;;;;;;;;;;;;10.07;68.69;100994.80;1703483;83;25757;-59
2022/10/04 03:33:54;;;;;;;;;;;;;;;10.08;68.57;100992.98;1701091;84;25714;-59
2022/10/04 03:36:22;;;;;;;;;;;;;;;10.06;68.44;100996.28;1698124;83;26097;-58
2022/10/04 03:38:52;;;;;;;;;;;;;;;10.02;68.35;100999.72;1689870;84;25818;-58
2022/10/04 03:41:18;;;;;;;;;;;;;;;10.01;68.50;100995.31;1692393;84;27542;-60
2022/10/04 03:43:48;;;;;;;;;;;;;;;9.99;68.55;100991.42;1685246;84;25714;-58
2022/10/04 03:46:17;;;;;;;;;;;;;;;10.00;68.91;100990.92;1684867;84;25739;-59
2022/10/04 03:48:45;;;;;;;;;;;;;;;10.01;69.19;101000.19;1695528;83;26282;-58
2022/10/04 03:51:18;;;;;;;;;;;;;;;9.97;69.06;100997.41;1731117;82;25710;-59
2022/10/04 03:53:47;;;;;;;;;;;;;;;9.92;69.17;101000.95;1731754;83;27447;-59
2022/10/04 03:56:32;;;;;;;;;;;;;;;9.81;68.97;100999.66;1731514;83;25712;-59
2022/10/04 03:59:02;;;;;;;;;;;;;;;9.77;68.95;100999.02;1723010;82;25796;-58
2022/10/04 04:01:45;;;;;;;;;;;;;;;9.77;68.95;100994.16;1730521;82;26165;-59
2022/10/04 04:04:36;;;;;;;;;;;;;;;9.77;69.05;101004.90;1731702;83;25756;-59
2022/10/04 04:07:13;;;;;;;;;;;;;;;9.74;69.01;101006.02;1706665;82;28707;-59
2022/10/04 04:09:46;;;;;;;;;;;;;;;9.72;68.76;101013.34;1724858;82;25741;-59
2022/10/04 04:12:15;;;;;;;;;;;;;;;9.71;68.82;101016.53;1718678;82;25755;-59
2022/10/04 04:14:42;;;;;;;;;;;;;;;9.70;68.76;101015.28;1726160;82;26048;-59
2022/10/04 04:17:27;;;;;;;;;;;;;;;9.68;68.79;101015.92;1724307;82;26116;-59
2022/10/04 04:19:59;;;;;;;;;;;;;;;9.69;69.24;101020.29;1729011;82;27587;-59
2022/10/04 04:22:30;;;;;;;;;;;;;;;9.75;69.50;101025.66;1728186;82;26462;-59
2022/10/04 04:24:55;;;;;;;;;;;;;;;9.76;69.63;101032.27;1724736;82;25827;-59
2022/10/04 04:27:23;;;;;;;;;;;;;;;9.80;69.68;101041.77;1723545;82;27022;-59
2022/10/04 04:29:52;;;;;;;;;;;;;;;9.83;69.73;101038.84;1704569;82;25779;-59
2022/10/04 04:32:27;;;;;;;;;;;;;;;9.85;70.07;101045.43;1723948;82;27539;-59
2022/10/04 04:35:05;;;;;;;;;;;;;;;9.88;70.16;101047.88;1719523;81;25765;-59
2022/10/04 04:37:28;;;;;;;;;;;;;;;9.88;70.30;101045.19;1720436;82;25701;-59
2022/10/04 04:39:54;;;;;;;;;;;;;;;9.90;70.07;101052.64;1718548;81;26136;-61
2022/10/04 04:42:27;;;;;;;;;;;;;;;9.93;70.34;101049.69;1696181;82;25789;-59
2022/10/04 04:45:06;;;;;;;;;;;;;;;9.98;70.25;101056.91;1733193;82;27618;-59
2022/10/04 04:47:37;;;;;;;;;;;;;;;10.02;70.49;101049.44;1726695;83;25764;-60
2022/10/04 04:50:12;;;;;;;;;;;;;;;10.08;70.59;101056.16;1726685;82;25748;-59
2022/10/04 04:52:40;;;;;;;;;;;;;;;10.10;70.76;101063.10;1724770;83;26169;-59
2022/10/04 04:55:10;;;;;;;;;;;;;;;10.13;70.56;101063.33;1716127;82;25740;-59
2022/10/04 04:57:38;;;;;;;;;;;;;;;10.15;70.41;101068.94;1723111;82;27492;-60
2022/10/04 05:00:08;;;;;;;;;;;;;;;10.18;70.39;101072.73;1720095;81;25799;-59
2022/10/04 05:02:36;;;;;;;;;;;;;;;10.23;70.54;101078.20;1723131;82;25802;-59
2022/10/04 05:05:21;;;;;;;;;;;;;;;10.30;70.53;101079.43;1718853;82;26098;-60
2022/10/04 05:07:49;;;;;;;;;;;;;;;10.37;70.04;101074.37;1707427;84;25688;-61
2022/10/04 05:10:32;;;;;;;;;;;;;;;10.47;70.18;101078.05;1719949;82;28421;-60
2022/10/04 05:12:59;;;;;;;;;;;;;;;10.56;70.00;101086.69;1733055;82;26094;-59
2022/10/04 05:15:27;;;;;;;;;;;;;;;10.67;69.90;101092.50;1741211;82;25749;-60
2022/10/04 05:17:53;;;;;;;;;;;;;;;10.73;68.73;101089.80;1741352;82;26393;-59
2022/10/04 05:20:21;;;;;;;;;;;;;;;10.81;67.79;101096.73;1741227;82;25688;-59
2022/10/04 05:22:48;;;;;;;;;;;;;;;10.85;67.49;101090.62;1732695;81;28390;-60
2022/10/04 05:25:33;;;;;;;;;;;;;;;10.90;66.96;101098.64;1731429;82;25793;-60
2022/10/04 05:28:01;;;;;;;;;;;;;;;10.96;67.07;101102.65;1727888;83;25756;-60
2022/10/04 05:30:40;;;;;;;;;;;;;;;11.04;66.45;101110.08;1743092;81;26248;-60
2022/10/04 05:33:09;;;;;;;;;;;;;;;11.09;65.89;101110.05;1713453;83;25731;-59
2022/10/04 05:35:53;;;;;;;;;;;;;;;11.12;65.27;101115.66;1713287;83;27575;-61
2022/10/04 05:38:43;;;;;;;;;;;;;;;11.17;65.65;101116.11;1724164;81;26005;-61
2022/10/04 05:41:17;;;;;;;;;;;;;;;11.25;64.46;101118.16;1755786;81;26697;-59
2022/10/04 05:43:45;;;;;;;;;;;;;;;11.28;64.56;101116.55;1727707;83;27075;-58
2022/10/04 05:46:24;;;;;;;;;;;;;;;11.33;64.55;101118.85;1731539;83;25891;-60
2022/10/04 05:48:57;;;;;;;;;;;;;;;11.43;65.00;101130.52;1731857;82;27600;-60
2022/10/04 05:51:28;;;;;;;;;;;;;;;11.51;64.38;101131.20;1730793;81;25695;-60
2022/10/04 05:53:57;;;;;;;;;;;;;;;11.55;63.94;101133.50;1737981;81;25778;-59
2022/10/04 05:56:40;;;;;;;;;;;;;;;11.61;64.17;101132.11;1728887;82;26138;-62
2022/10/04 05:59:35;;;;;;;;;;;;;;;11.66;63.61;101123.12;1737571;82;25438;-61
2022/10/04 06:02:26;;;;;;;;;;;;;;;11.68;62.91;101129.73;1731066;83;28088;-60
2022/10/04 06:05:02;;;;;;;;;;;;;;;11.68;61.74;101138.66;1705206;82;25958;-60
2022/10/04 06:07:36;;;;;;;;;;;;;;;11.67;60.93;101135.61;1711912;82;25484;-60
2022/10/04 06:10:12;;;;;;;;;;;;;;;11.70;60.65;101143.91;1725875;82;26113;-59
2022/10/04 06:13:11;;;;;;;;;;;;;;;11.74;60.72;101138.11;1748421;82;26053;-60
2022/10/04 06:15:54;;;;;;;;;;;;;;;11.81;60.46;101141.64;1745722;82;27469;-60
2022/10/04 06:18:44;;;;;;;;;;;;;;;11.82;58.56;101144.19;1742301;81;25735;-60
2022/10/04 06:21:23;;;;;;;;;;;;;;;11.91;58.91;101143.89;1742446;80;26829;-60
2022/10/04 06:23:53;;;;;;;;;;;;;;;12.00;58.99;101145.80;1726940;81;26154;-61
2022/10/04 06:26:25;;;;;;;;;;;;;;;12.14;58.10;101141.87;1737378;82;25732;-60
2022/10/04 06:29:00;;;;;;;;;;;;;;;12.25;58.00;101148.99;1741522;82;28143;-59
2022/10/04 06:31:55;;;;;;;;;;;;;;;12.38;57.57;101154.12;1749964;81;25747;-60
2022/10/04 06:34:34;;;;;;;;;;;;;;;12.46;56.39;101160.20;1748195;82;25779;-61
2022/10/04 06:37:05;;;;;;;;;;;;;;;12.55;56.90;101149.05;1744078;82;26150;-60
2022/10/04 06:39:53;;;;;;;;;;;;;;;12.65;57.35;101157.50;1743051;81;25692;-59
2022/10/04 06:42:24;;;;;;;;;;;;;;;12.74;57.69;101159.87;1742464;82;27554;-59
2022/10/04 06:45:12;;;;;;;;;;;;;;;12.76;57.19;101164.64;1741304;82;25737;-60
2022/10/04 06:47:42;;;;;;;;;;;;;;;12.75;57.16;101175.08;1742439;82;25726;-59
2022/10/04 06:50:19;;;;;;;;;;;;;;;12.82;57.87;101167.24;1742402;81;26181;-59
2022/10/04 06:52:57;;;;;;;;;;;;;;;12.80;56.27;101180.05;1732380;81;25684;-59
2022/10/04 06:55:46;;;;;;;;;;;;;;;12.77;56.52;101186.59;1741334;82;28507;-60
2022/10/04 06:58:44;;;;;;;;;;;;;;;12.79;56.83;101187.28;1742016;82;25832;-59
2022/10/04 07:01:32;;;;;;;;;;;;;;;12.79;56.25;101199.43;1742605;82;25799;-59
2022/10/04 07:04:19;;;;;;;;;;;;;;;12.76;55.93;101201.08;1742002;82;26090;-60
2022/10/04 07:07:25;;;;;;;;;;;;;;;12.71;56.10;101210.08;1742386;82;25953;-59
2022/10/04 07:09:55;;;;;;;;;;;;;;;12.70;55.62;101204.31;1735301;82;27495;-60
2022/10/04 07:12:23;;;;;;;;;;;;;;;12.66;55.14;101209.66;1731830;82;26276;-60
2022/10/04 07:14:51;;;;;;;;;;;;;;;12.66;55.24;101201.56;1731804;82;25732;-59
2022/10/04 07:17:22;;;;;;;;;;;;;;;12.68;54.48;101221.17;1731471;81;26113;-59
2022/10/04 07:19:49;;;;;;;;;;;;;;;12.66;54.70;101216.41;1731547;82;25699;-59
2022/10/04 07:22:32;;;;;;;;;;;;;;;12.67;54.58;101213.55;1731434;82;27294;-59
2022/10/04 07:25:26;;;;;;;;;;;;;;;12.72;54.58;101205.03;1713275;82;25809;-59
2022/10/04 07:30:44;;;;;;;;;;;;;;;12.87;54.42;101217.64;1751084;81;26867;-60
2022/10/04 07:33:18;;;;;;;;;;;;;;;12.89;55.04;101210.26;1757162;80;25747;-59
2022/10/04 07:35:53;;;;;;;;;;;;;;;12.91;54.81;101211.45;1737759;81;27503;-60
2022/10/04 07:38:28;;;;;;;;;;;;;;;12.97;55.28;101217.16;1732931;81;25785;-60
2022/10/04 07:41:07;;;;;;;;;;;;;;;12.99;54.90;101215.17;1755143;81;25750;-57
2022/10/04 07:43:37;;;;;;;;;;;;;;;13.02;54.49;101218.08;1743618;82;26260;-58
2022/10/04 07:46:27;;;;;;;;;;;;;;;13.08;55.19;101223.42;1738735;82;28764;-59
2022/10/04 07:48:54;;;;;;;;;;;;;;;13.19;54.48;101226.47;1723711;82;27624;-59
2022/10/04 07:51:24;;;;;;;;;;;;;;;13.25;54.44;101225.41;1729800;80;25706;-59
2022/10/04 07:54:04;;;;;;;;;;;;;;;13.23;53.92;101226.05;1721490;82;25709;-59
2022/10/04 07:56:40;;;;;;;;;;;;;;;13.23;53.39;101227.88;1727907;82;27977;-59
2022/10/04 07:59:28;;;;;;;;;;;;;;;13.34;53.80;101234.49;1740940;80;25705;-59
2022/10/04 08:02:16;;;;;;;;;;;;;;;13.45;53.49;101232.16;1741438;82;27604;-59
2022/10/04 08:04:55;;;;;;;;;;;;;;;13.52;51.46;101231.09;1739485;82;26285;-59
2022/10/04 08:07:25;;;;;;;;;;;;;;;13.67;51.95;101235.05;1733040;82;25761;-59
2022/10/04 08:10:05;;;;;;;;;;;;;;;13.92;52.66;101230.87;1731279;82;26145;-58
2022/10/04 08:13:07;;;;;;;;;;;;;;;14.13;51.36;101227.59;1731210;83;25801;-60
2022/10/04 08:15:38;;;;;;;;;;;;;;;14.30;51.73;101228.15;1731596;81;28089;-59
2022/10/04 08:18:15;;;;;;;;;;;;;;;14.46;51.00;101229.38;1731466;82;26329;-58
2022/10/04 08:20:48;;;;;;;;;;;;;;;14.64;50.64;101226.70;1717784;82;25760;-59
2022/10/04 08:23:22;;;;;;;;;;;;;;;14.79;48.35;101230.62;1732737;81;26144;-58
2022/10/04 08:25:57;;;;;;;;;;;;;;;14.79;47.50;101233.33;1731702;82;27352;-60
2022/10/04 08:32:05;;;;;;;;;;;;;;;15.22;48.50;101222.75;1762442;81;25763;-58
2022/10/04 08:34:58;;;;;;;;;;;;;;;15.43;46.13;101229.19;1724452;82;25882;-59
2022/10/04 08:37:31;;;;;;;;;;;;;;;15.62;45.54;101232.72;1741073;82;26127;-58
2022/10/04 08:40:16;;;;;;;;;;;;;;;15.86;47.08;101228.53;1741075;81;25777;-59
2022/10/04 08:43:04;;;;;;;;;;;;;;;16.22;46.34;101219.73;1692716;82;27678;-59
2022/10/04 08:45:52;;;;;;;;;;;;;;;16.52;46.17;101220.20;1727629;82;25640;-60
2022/10/04 08:48:56;;;;;;;;;;;;;;;16.71;43.21;101224.48;1735441;82;25826;-59
2022/10/04 08:51:35;;;;;;;;;;;;;;;16.95;44.46;101220.14;1734996;82;26102;-59
2022/10/04 08:54:27;;;;;;;;;;;;;;;16.97;42.39;101228.98;1741487;82;25700;-60
2022/10/04 08:57:06;;;;;;;;;;;;;;;17.08;42.93;101229.16;1741523;82;27702;-60
2022/10/04 08:59:44;;;;;;;;;;;;;;;17.33;41.88;101228.68;1740434;82;25870;-59
2022/10/04 09:02:46;;;;;;;;;;;;;;;17.65;43.34;101226.12;1740031;82;25664;-60
2022/10/04 09:05:32;;;;;;;;;;;;;;;17.89;42.27;101242.06;1714008;82;26123;-59
2022/10/04 09:08:08;;;;;;;;;;;;;;;18.20;40.59;101240.81;1740926;82;25752;-61
2022/10/04 09:11:00;;;;;;;;;;;;;;;18.28;40.77;101233.14;1714067;82;28626;-61
2022/10/04 09:13:36;;;;;;;;;;;;;;;18.84;39.81;101232.20;1730082;82;25738;-59
2022/10/04 09:16:24;;;;;;;;;;;;;;;18.51;40.03;101235.11;1726618;82;25818;-61
2022/10/04 09:19:10;;;;;;;;;;;;;;;19.52;38.51;101222.34;1726693;82;26210;-59
2022/10/04 09:22:00;;;;;;;;;;;;;;;20.47;37.26;101217.75;1728945;82;25755;-59
2022/10/04 09:24:53;;;;;;;;;;;;;;;20.95;34.76;101230.95;1728095;82;27417;-60
2022/10/04 09:27:26;;;;;;;;;;;;;;;21.39;33.12;101222.20;1727195;82;25876;-59
2022/10/04 09:30:13;;;;;;;;;;;;;;;21.34;34.63;101236.47;1734527;82;25691;-59
2022/10/04 09:33:00;;;;;;;;;;;;;;;20.90;34.29;101238.38;1729913;81;27095;-58
2022/10/04 09:35:53;;;;;;;;;;;;;;;21.47;33.66;101229.44;1730889;82;25662;-59
2022/10/04 09:38:37;;;;;;;;;;;;;;;22.15;32.57;101230.25;1734913;82;27536;-59
2022/10/04 09:41:41;;;;;;;;;;;;;;;22.91;32.37;101222.48;1743960;82;25857;-59
2022/10/04 09:44:17;;;;;;;;;;;;;;;23.68;30.40;101229.02;1733816;82;25809;-61
2022/10/04 09:47:06;;;;;;;;;;;;;;;24.29;30.82;101223.44;1733245;82;26128;-60
2022/10/04 09:49:41;;;;;;;;;;;;;;;24.85;28.20;101232.39;1735742;82;25700;-62
2022/10/04 09:52:20;;;;;;;;;;;;;;;24.16;28.49;101236.15;1727531;82;28151;-59
2022/10/04 09:54:55;;;;;;;;;;;;;;;24.92;30.02;101232.36;1730691;82;25816;-60
2022/10/04 09:57:29;;;;;;;;;;;;;;;25.19;26.52;101246.50;1731480;82;25711;-59
2022/10/04 09:59:59;;;;;;;;;;;;;;;24.49;27.33;101242.60;1731297;82;26102;-59
2022/10/04 10:02:32;;;;;;;;;;;;;;;24.49;27.50;101238.48;1729673;82;25712;-59
2022/10/04 10:05:34;;;;;;;;;;;;;;;23.49;27.66;101241.68;1731075;82;27507;-60
2022/10/04 10:08:34;;;;;;;;;;;;;;;23.40;28.31;101236.94;1737286;82;25856;-59
2022/10/04 10:14:20;;;;;;;;;;;;;;;22.17;30.98;101241.86;1750309;81;26157;-59
2022/10/04 10:17:16;;;;;;;;;;;;;;;23.20;31.48;101247.05;1748572;82;25823;-59
2022/10/04 10:20:02;;;;;;;;;;;;;;;24.50;31.16;101242.92;1733528;81;27507;-59
2022/10/04 10:22:48;;;;;;;;;;;;;;;25.79;28.24;101236.38;1743779;80;25802;-60
2022/10/04 10:25:24;;;;;;;;;;;;;;;26.39;25.71;101234.94;1748596;81;25759;-58
2022/10/04 10:28:13;;;;;;;;;;;;;;;27.07;27.46;101244.02;1728514;82;27268;-60
2022/10/04 10:30:49;;;;;;;;;;;;;;;26.85;26.01;101232.10;1747360;80;25703;-60
2022/10/04 10:33:32;;;;;;;;;;;;;;;26.48;24.30;101243.72;1747639;82;27557;-60
2022/10/04 10:36:14;;;;;;;;;;;;;;;27.25;26.49;101242.26;1741921;82;26095;-60
2022/10/04 10:38:59;;;;;;;;;;;;;;;27.77;24.64;101234.73;1750549;81;25759;-59
2022/10/04 10:41:54;;;;;;;;;;;;;;;28.61;23.64;101239.06;1760626;81;26135;-59
2022/10/04 10:44:33;;;;;;;;;;;;;;;29.10;25.33;101219.77;1742658;82;25924;-61
2022/10/04 10:47:19;;;;;;;;;;;;;;;29.98;23.17;101234.02;1747839;82;27561;-60
2022/10/04 10:49:55;;;;;;;;;;;;;;;30.34;22.57;101229.47;1745735;82;25684;-60
2022/10/04 10:52:53;;;;;;;;;;;;;;;30.64;22.13;101241.22;1743338;81;25682;-58
2022/10/04 10:55:40;;;;;;;;;;;;;;;30.18;20.94;101227.03;1742514;80;26121;-59
2022/10/04 10:58:16;;;;;;;;;;;;;;;30.49;22.67;101238.54;1746724;82;25664;-59
2022/10/04 11:00:52;;;;;;;;;;;;;;;30.04;20.41;101238.23;1746888;81;28327;-59
2022/10/04 11:03:22;;;;;;;;;;;;;;;29.58;21.27;101241.95;1722777;82;25454;-60
2022/10/04 11:05:57;;;;;;;;;;;;;;;28.73;22.67;101250.95;1738059;82;25471;-61
2022/10/04 11:08:33;;;;;;;;;;;;;;;27.84;22.67;101262.27;1744947;82;26123;-60
2022/10/04 11:11:14;;;;;;;;;;;;;;;27.12;22.78;101262.08;1743552;82;25687;-59
2022/10/04 11:14:11;;;;;;;;;;;;;;;26.83;22.97;101260.50;1741258;82;27604;-58
2022/10/04 11:17:02;;;;;;;;;;;;;;;26.28;23.55;101253.63;1737357;82;25661;-59
2022/10/04 11:19:50;;;;;;;;;;;;;;;25.32;24.61;101257.41;1740893;82;25807;-59
2022/10/04 11:22:35;;;;;;;;;;;;;;;24.31;25.54;101259.27;1737111;82;28287;-60
2022/10/04 11:25:05;;;;;;;;;;;;;;;23.79;26.14;101248.66;1731631;82;25752;-59
2022/10/04 11:27:53;;;;;;;;;;;;;;;23.70;26.91;101257.64;1733848;82;27514;-60
2022/10/04 11:30:37;;;;;;;;;;;;;;;23.64;26.89;101246.13;1735758;81;25810;-59
2022/10/04 11:33:28;;;;;;;;;;;;;;;23.63;27.47;101259.55;1712750;82;25786;-60
2022/10/04 11:36:02;;;;;;;;;;;;;;;23.16;27.66;101254.82;1734544;82;26113;-60
2022/10/04 11:38:47;;;;;;;;;;;;;;;23.13;27.82;101249.73;1741001;81;25431;-59
2022/10/04 11:41:17;;;;;;;;;;;;;;;23.56;28.01;101252.16;1751066;81;27556;-60
2022/10/04 11:44:04;;;;;;;;;;;;;;;23.53;27.24;101264.09;1730124;82;25496;-60
2022/10/04 11:46:46;;;;;;;;;;;;;;;23.02;27.37;101261.34;1731414;83;25708;-61
2022/10/04 11:49:22;;;;;;;;;;;;;;;22.59;27.84;101264.66;1734924;82;26116;-59
2022/10/04 11:52:03;;;;;;;;;;;;;;;22.07;28.19;101261.42;1741986;81;26113;-60
2022/10/04 11:54:37;;;;;;;;;;;;;;;21.94;28.85;101269.53;1736888;81;27548;-59
2022/10/04 11:57:27;;;;;;;;;;;;;;;21.46;29.07;101265.55;1740531;82;25713;-60
2022/10/04 12:00:03;;;;;;;;;;;;;;;21.15;29.68;101264.52;1741036;82;25766;-60
2022/10/04 12:02:45;;;;;;;;;;;;;;;21.38;29.74;101261.59;1738574;82;28312;-59
2022/10/04 12:05:34;;;;;;;;;;;;;;;21.20;29.06;101268.86;1740467;82;25687;-61
2022/10/04 12:08:23;;;;;;;;;;;;;;;20.63;29.63;101274.93;1724294;82;27491;-59
2022/10/04 12:11:15;;;;;;;;;;;;;;;20.66;30.34;101259.19;1731836;82;26238;-59
2022/10/04 12:13:45;;;;;;;;;;;;;;;20.93;30.16;101268.05;1731377;83;25733;-60
2022/10/04 12:16:33;;;;;;;;;;;;;;;21.51;29.33;101258.13;1730566;82;26143;-59
2022/10/04 12:19:26;;;;;;;;;;;;;;;22.15;29.24;101257.14;1731573;82;25399;-60
2022/10/04 12:22:02;;;;;;;;;;;;;;;22.77;27.76;101262.74;1733396;82;27477;-60
2022/10/04 12:24:33;;;;;;;;;;;;;;;23.16;27.69;101256.19;1740017;82;25806;-59
2022/10/04 12:27:25;;;;;;;;;;;;;;;23.77;26.00;101252.98;1731570;82;25860;-60
2022/10/04 12:30:07;;;;;;;;;;;;;;;24.52;27.02;101262.26;1748472;81;26093;-60
2022/10/04 12:32:43;;;;;;;;;;;;;;;25.45;24.24;101255.97;1763668;81;25761;-60
2022/10/04 12:35:25;;;;;;;;;;;;;;;26.21;24.28;101255.92;1763379;81;27337;-61
2022/10/04 12:38:12;;;;;;;;;;;;;;;26.98;24.02;101253.19;1733181;81;25784;-61
2022/10/04 12:41:04;;;;;;;;;;;;;;;26.47;24.43;101258.06;1763481;81;25757;-60
2022/10/04 12:43:41;;;;;;;;;;;;;;;25.57;24.28;101262.97;1763548;80;26403;-59
2022/10/04 12:46:26;;;;;;;;;;;;;;;24.28;24.84;101264.36;1763171;81;25737;-59
2022/10/04 12:49:24;;;;;;;;;;;;;;;23.55;25.57;101267.45;1749775;81;27684;-59
2022/10/04 12:52:17;;;;;;;;;;;;;;;23.83;26.41;101265.02;1733337;82;25698;-59
2022/10/04 12:55:16;;;;;;;;;;;;;;;23.99;27.24;101264.61;1726733;82;25689;-59
2022/10/04 12:57:50;;;;;;;;;;;;;;;24.98;26.52;101260.36;1727689;82;26112;-60
2022/10/04 13:00:22;;;;;;;;;;;;;;;25.85;25.81;101268.56;1731300;82;25675;-60
2022/10/04 13:02:58;;;;;;;;;;;;;;;26.22;25.39;101263.65;1736047;82;27495;-59
2022/10/04 13:05:44;;;;;;;;;;;;;;;27.54;25.01;101267.34;1732073;82;25981;-60
2022/10/04 13:08:44;;;;;;;;;;;;;;;27.78;23.78;101271.80;1731813;82;25743;-60
2022/10/04 13:11:29;;;;;;;;;;;;;;;28.89;22.28;101263.72;1733434;82;26145;-61
2022/10/04 13:14:32;;;;;;;;;;;;;;;29.82;23.38;101266.19;1722918;82;25814;-60
2022/10/04 13:17:23;;;;;;;;;;;;;;;31.02;21.77;101272.19;1742814;82;27542;-61
2022/10/04 13:20:13;;;;;;;;;;;;;;;32.29;19.92;101276.04;1741970;82;25746;-60
2022/10/04 13:23:06;;;;;;;;;;;;;;;31.60;18.21;101283.33;1742586;82;26608;-61
2022/10/04 13:25:45;;;;;;;;;;;;;;;32.02;18.92;101279.76;1733146;82;26160;-60
2022/10/04 13:28:20;;;;;;;;;;;;;;;32.60;19.45;101283.11;1725997;81;25858;-60
2022/10/04 13:30:56;;;;;;;;;;;;;;;33.07;18.69;101283.56;1738807;81;27608;-59
2022/10/04 13:33:26;;;;;;;;;;;;;;;33.27;17.94;101281.92;1754305;81;26014;-59
2022/10/04 13:36:18;;;;;;;;;;;;;;;33.38;18.90;101282.25;1752469;81;25777;-59
2022/10/04 13:38:48;;;;;;;;;;;;;;;34.01;19.01;101281.65;1726573;82;26729;-60
2022/10/04 13:41:42;;;;;;;;;;;;;;;34.76;18.69;101278.05;1703175;84;25828;-59
2022/10/04 13:44:30;;;;;;;;;;;;;;;35.31;17.76;101283.29;1703519;83;27487;-60
2022/10/04 13:47:20;;;;;;;;;;;;;;;35.51;17.61;101281.77;1712485;83;25875;-59